Time;durP1;ratioP1;P1;durP2;ratioP2;P2;SDS_P1;SDS_P2;PMS_P1;PMS_P2;Temp;Humidity;BMP_temperature;BMP_pressure;BME280_temperature;BME280_humidity;BME280_pressure;Samples;Min_cycle;Max_cycle;Signal;HPM_P1;HPM_P2
2023/01/27 00:02:00;;;;;;;19.25;7.55;;;-0.50;99.90;;;;;;5030042;28;20088;-63
2023/01/27 00:04:26;;;;;;;18.17;7.30;;;-0.50;99.90;;;;;;5029065;28;20044;-64
2023/01/27 00:06:51;;;;;;;18.23;7.13;;;-0.50;99.90;;;;;;5036727;28;20031;-64
2023/01/27 00:09:17;;;;;;;20.88;7.38;;;-0.50;99.90;;;;;;5056586;28;20064;-64
2023/01/27 00:14:27;;;;;;;18.75;7.10;;;-0.50;99.90;;;;;;5054767;28;20405;-65
2023/01/27 00:16:52;;;;;;;19.70;7.20;;;-0.50;99.90;;;;;;5049390;28;20025;-64
2023/01/27 00:19:18;;;;;;;20.10;7.97;;;-0.50;99.90;;;;;;5042346;28;20029;-64
2023/01/27 00:24:35;;;;;;;23.00;8.52;;;-0.50;99.90;;;;;;5049219;28;20500;-62
2023/01/27 00:27:05;;;;;;;20.10;7.63;;;-0.50;99.90;;;;;;5048128;28;20180;-64
2023/01/27 00:29:31;;;;;;;;;;;-0.60;99.90;;;;;;5049087;28;20121;-64
2023/01/27 00:34:41;;;;;;;23.40;8.15;;;-0.60;99.90;;;;;;5048158;28;20288;-64
2023/01/27 00:37:06;;;;;;;22.08;8.15;;;-0.50;99.90;;;;;;5055479;28;20477;-64
2023/01/27 00:39:32;;;;;;;21.60;8.13;;;-0.50;99.90;;;;;;5062285;28;20033;-64
2023/01/27 00:41:58;;;;;;;23.60;9.10;;;-0.50;99.90;;;;;;5049120;28;20431;-63
2023/01/27 00:44:23;;;;;;;23.02;8.38;;;-0.50;99.90;;;;;;5044545;28;20025;-63
2023/01/27 00:46:49;;;;;;;20.35;8.25;;;-0.50;99.90;;;;;;5068974;28;20497;-64
2023/01/27 00:49:15;;;;;;;23.00;9.32;;;-0.50;99.90;;;;;;5065158;28;20032;-64
2023/01/27 00:51:41;;;;;;;25.40;9.00;;;-0.60;99.90;;;;;;5064946;28;20039;-64
2023/01/27 00:54:07;;;;;;;24.50;8.43;;;-0.60;99.90;;;;;;5051461;28;20842;-61
2023/01/27 00:56:33;;;;;;;23.15;8.63;;;-0.60;99.90;;;;;;5046014;28;20037;-63
2023/01/27 00:58:59;;;;;;;23.17;8.30;;;-0.60;99.90;;;;;;5046927;28;20036;-64
2023/01/27 01:01:25;;;;;;;24.67;8.38;;;-0.70;99.90;;;;;;5064859;28;20453;-63
2023/01/27 01:03:51;;;;;;;20.50;7.90;;;-0.70;99.90;;;;;;5066085;28;20144;-64
2023/01/27 01:06:18;;;;;;;27.92;9.05;;;-0.70;99.90;;;;;;5050422;28;20775;-64
2023/01/27 01:08:43;;;;;;;27.65;9.25;;;-0.70;99.90;;;;;;5058954;28;20864;-64
2023/01/27 01:11:14;;;;;;;25.83;9.10;;;-0.70;99.90;;;;;;5033381;28;20033;-63
2023/01/27 01:13:41;;;;;;;27.65;10.18;;;-0.60;99.90;;;;;;5040185;28;20504;-64
2023/01/27 01:16:10;;;;;;;26.10;9.57;;;-0.60;99.90;;;;;;5047621;28;20067;-64
2023/01/27 01:18:36;;;;;;;23.42;8.90;;;-0.60;99.90;;;;;;5046550;28;20033;-64
2023/01/27 01:21:02;;;;;;;26.90;9.65;;;-0.60;99.90;;;;;;5047204;28;20091;-64
2023/01/27 01:23:28;;;;;;;27.20;9.75;;;-0.60;99.90;;;;;;5046965;28;20033;-64
2023/01/27 01:25:55;;;;;;;26.27;9.88;;;-0.60;99.90;;;;;;5038320;28;20033;-63
2023/01/27 01:28:22;;;;;;;26.48;10.15;;;-0.60;99.90;;;;;;5047009;28;20057;-65
2023/01/27 01:30:47;;;;;;;27.90;10.52;;;-0.60;99.90;;;;;;5032983;28;20029;-64
2023/01/27 01:33:14;;;;;;;24.27;9.63;;;-0.60;99.90;;;;;;5048435;28;20025;-64
2023/01/27 01:35:39;;;;;;;24.60;9.52;;;-0.60;99.90;;;;;;5047717;28;20025;-64
2023/01/27 01:38:05;;;;;;;25.20;9.13;;;-0.60;99.90;;;;;;5047524;28;20033;-64
2023/01/27 01:40:32;;;;;;;26.38;9.18;;;-0.60;99.90;;;;;;5047582;28;20037;-64
2023/01/27 01:42:59;;;;;;;25.65;9.55;;;-0.70;99.90;;;;;;5047122;28;20043;-64
2023/01/27 01:45:36;;;;;;;27.48;10.25;;;-0.70;99.90;;;;;;5032801;28;20117;-63
2023/01/27 01:48:08;;;;;;;23.98;9.02;;;-0.70;99.90;;;;;;5027772;28;20033;-62
2023/01/27 01:50:36;;;;;;;24.52;9.38;;;-0.70;99.90;;;;;;5037490;28;20021;-62
2023/01/27 01:53:03;;;;;;;25.67;9.25;;;-0.70;99.90;;;;;;5047135;28;20488;-64
2023/01/27 01:55:31;;;;;;;22.67;8.70;;;-0.70;99.90;;;;;;5052298;28;20027;-62
2023/01/27 01:57:57;;;;;;;28.17;9.80;;;-0.80;99.90;;;;;;5046403;28;20091;-63
2023/01/27 02:00:24;;;;;;;30.58;10.73;;;-0.70;99.90;;;;;;5061349;28;20037;-64
2023/01/27 02:02:51;;;;;;;25.60;9.10;;;-0.70;99.90;;;;;;5047863;28;20037;-64
2023/01/27 02:05:23;;;;;;;27.48;9.40;;;-0.70;99.90;;;;;;5059050;28;20481;-63
2023/01/27 02:08:00;;;;;;;27.45;9.32;;;-0.70;99.90;;;;;;5047294;28;20083;-64
2023/01/27 02:10:26;;;;;;;24.45;9.18;;;-0.70;99.90;;;;;;5048691;28;20056;-63
2023/01/27 02:12:52;;;;;;;28.83;9.23;;;-0.70;99.90;;;;;;5050990;28;20153;-63
2023/01/27 02:15:18;;;;;;;22.40;8.50;;;-0.70;99.90;;;;;;5048065;28;20037;-63
2023/01/27 02:17:43;;;;;;;24.88;9.07;;;-0.70;99.90;;;;;;5062943;28;20025;-63
2023/01/27 02:20:31;;;;;;;24.45;9.43;;;-0.70;99.90;;;;;;5051059;28;20474;-64
2023/01/27 02:23:25;;;;;;;25.83;9.18;;;-0.70;99.90;;;;;;5058543;28;20029;-63
2023/01/27 02:26:03;;;;;;;25.17;8.40;;;-0.80;99.90;;;;;;5033931;28;20029;-63
2023/01/27 02:28:29;;;;;;;27.90;9.20;;;-0.80;99.90;;;;;;5040352;28;20049;-64
2023/01/27 02:30:56;;;;;;;28.15;10.25;;;-0.90;99.90;;;;;;5042874;28;20047;-64
2023/01/27 02:33:22;;;;;;;29.20;10.45;;;-0.80;99.90;;;;;;5031713;28;20029;-64
2023/01/27 02:35:54;;;;;;;23.00;9.25;;;-0.90;99.90;;;;;;5035450;28;20152;-65
2023/01/27 02:38:20;;;;;;;27.48;9.25;;;-0.90;99.90;;;;;;5070267;28;20155;-63
2023/01/27 02:40:53;;;;;;;23.80;9.02;;;-0.90;99.90;;;;;;5052686;28;20032;-64
2023/01/27 02:43:18;;;;;;;23.60;8.30;;;-0.80;99.90;;;;;;5051107;28;20033;-64
2023/01/27 02:45:46;;;;;;;24.63;8.93;;;-0.90;99.90;;;;;;5045189;28;20037;-63
2023/01/27 02:48:12;;;;;;;23.98;9.32;;;-0.80;99.90;;;;;;5031888;28;20147;-64
2023/01/27 02:50:38;;;;;;;26.45;9.75;;;-0.80;99.90;;;;;;5041282;28;20104;-64
2023/01/27 02:53:04;;;;;;;26.88;9.73;;;-0.80;99.90;;;;;;5031694;28;20125;-63
2023/01/27 02:55:30;;;;;;;27.25;9.93;;;-0.80;99.90;;;;;;5047722;28;20064;-64
2023/01/27 02:57:55;;;;;;;28.73;9.20;;;-0.80;99.90;;;;;;5070797;28;20522;-64
2023/01/27 03:00:21;;;;;;;29.23;10.02;;;-0.80;99.90;;;;;;5064656;28;20104;-63
2023/01/27 03:02:47;;;;;;;27.88;9.55;;;-0.80;99.90;;;;;;5050231;28;20112;-64
2023/01/27 03:05:14;;;;;;;32.88;11.27;;;-0.80;99.90;;;;;;5049239;28;20024;-64
2023/01/27 03:07:40;;;;;;;29.42;10.65;;;-0.80;99.90;;;;;;5049852;28;20453;-64
2023/01/27 03:10:07;;;;;;;31.13;10.00;;;-0.80;99.90;;;;;;5041449;28;20116;-63
2023/01/27 03:12:33;;;;;;;30.30;10.20;;;-0.80;99.90;;;;;;5066694;28;20039;-62
2023/01/27 03:20:27;;;;;;;33.65;10.40;;;-0.70;99.90;;;;;;5043243;28;20052;-64
2023/01/27 03:22:53;;;;;;;29.65;9.85;;;-0.80;99.90;;;;;;5049346;28;20462;-63
2023/01/27 03:25:18;;;;;;;28.80;10.27;;;-0.80;99.90;;;;;;5049291;28;20031;-62
2023/01/27 03:27:44;;;;;;;27.63;9.95;;;-0.70;99.90;;;;;;5042316;28;20491;-62
2023/01/27 03:30:10;;;;;;;29.00;9.95;;;-0.80;99.90;;;;;;5038524;28;20060;-64
2023/01/27 03:32:37;;;;;;;29.90;9.75;;;-0.80;99.90;;;;;;5033830;28;20033;-63
2023/01/27 03:35:03;;;;;;;25.00;9.50;;;-0.90;99.90;;;;;;5037322;28;20052;-64
2023/01/27 03:48:36;;;;;;;27.45;9.05;;;-0.80;99.90;;;;;;5049039;28;20397;-63
2023/01/27 03:51:04;;;;;;;26.90;9.40;;;-0.80;99.90;;;;;;5050579;28;20112;-63
2023/01/27 03:53:30;;;;;;;25.25;9.32;;;-0.80;99.90;;;;;;5049143;28;20087;-64
2023/01/27 03:55:56;;;;;;;24.73;8.85;;;-0.90;99.90;;;;;;5054180;28;20033;-64
2023/01/27 03:58:25;;;;;;;27.55;10.00;;;-0.90;99.90;;;;;;5060153;28;20036;-62
2023/01/27 04:00:54;;;;;;;29.13;9.65;;;-0.90;99.90;;;;;;5056517;28;20108;-64
2023/01/27 04:08:53;;;;;;;29.33;9.43;;;-0.80;99.90;;;;;;5059538;28;20185;-63
2023/01/27 04:14:04;;;;;;;27.25;8.90;;;-0.90;99.90;;;;;;5054854;28;20100;-63
2023/01/27 04:16:31;;;;;;;29.13;10.35;;;-0.90;99.90;;;;;;5037810;28;21867;-64
2023/01/27 04:18:57;;;;;;;24.52;9.10;;;-0.90;99.90;;;;;;5045315;28;20040;-64
2023/01/27 04:21:24;;;;;;;29.13;9.90;;;-0.80;99.90;;;;;;5048070;28;20037;-64
2023/01/27 04:23:53;;;;;;;24.13;8.75;;;-0.90;99.90;;;;;;5047147;28;20025;-64
2023/01/27 04:26:19;;;;;;;29.48;10.00;;;-0.90;99.90;;;;;;5048883;28;20025;-64
2023/01/27 04:28:45;;;;;;;29.08;10.07;;;-0.90;99.90;;;;;;5048772;28;20044;-64
2023/01/27 04:31:11;;;;;;;27.08;9.63;;;-0.90;99.90;;;;;;5051414;28;20064;-64
2023/01/27 04:33:37;;;;;;;27.23;9.48;;;-0.90;99.90;;;;;;5048225;28;20056;-63
2023/01/27 04:36:03;;;;;;;26.17;9.32;;;-1.00;99.90;;;;;;5049262;28;20032;-64
2023/01/27 04:38:28;;;;;;;25.58;9.20;;;-1.00;99.90;;;;;;5050070;28;20483;-63
2023/01/27 04:40:54;;;;;;;27.08;9.77;;;-1.00;99.90;;;;;;5048176;28;20092;-63
2023/01/27 04:43:20;;;;;;;31.05;9.50;;;-0.90;99.90;;;;;;5049197;28;20032;-63
2023/01/27 04:45:46;;;;;;;29.67;10.02;;;-1.00;99.90;;;;;;5048660;28;20055;-64
2023/01/27 04:48:12;;;;;;;29.73;9.65;;;-1.00;99.90;;;;;;5047329;28;20033;-63
2023/01/27 04:50:37;;;;;;;26.80;9.43;;;-1.00;99.90;;;;;;5046339;28;20485;-62
2023/01/27 04:53:03;;;;;;;32.50;10.35;;;-0.90;99.90;;;;;;5048780;28;20025;-64
2023/01/27 04:55:28;;;;;;;28.77;9.80;;;-1.00;99.90;;;;;;5054342;28;20078;-64
2023/01/27 04:57:54;;;;;;;30.65;10.65;;;-1.00;99.90;;;;;;5040404;28;20029;-64
2023/01/27 05:00:20;;;;;;;26.38;9.63;;;-1.00;99.90;;;;;;5033467;28;20024;-64
2023/01/27 05:02:46;;;;;;;33.38;10.30;;;-1.10;99.90;;;;;;5047999;28;20028;-64
2023/01/27 05:05:11;;;;;;;30.15;10.00;;;-1.10;99.90;;;;;;5049139;28;20445;-63
2023/01/27 05:07:38;;;;;;;34.53;10.57;;;-1.20;99.90;;;;;;5045665;28;20041;-63
2023/01/27 05:10:04;;;;;;;28.75;10.27;;;-1.20;99.90;;;;;;5048171;28;20041;-64
2023/01/27 05:12:30;;;;;;;33.08;10.05;;;-1.10;99.90;;;;;;5047598;28;20025;-64
2023/01/27 05:14:56;;;;;;;32.15;10.10;;;-1.10;99.90;;;;;;5042675;28;20658;-64
2023/01/27 05:17:22;;;;;;;30.40;10.13;;;-1.10;99.90;;;;;;5045404;28;20108;-64
2023/01/27 05:19:47;;;;;;;28.90;9.93;;;-1.10;99.90;;;;;;5047257;28;20040;-63
2023/01/27 05:22:13;;;;;;;32.55;10.68;;;-1.10;99.90;;;;;;5046603;28;21661;-62
2023/01/27 05:24:38;;;;;;;37.97;12.65;;;-1.00;99.90;;;;;;5035891;28;20671;-63
2023/01/27 05:27:04;;;;;;;30.23;10.45;;;-1.10;99.90;;;;;;5035126;28;20053;-64
2023/01/27 05:29:30;;;;;;;31.38;10.20;;;-1.10;99.90;;;;;;5041180;28;20456;-64
2023/01/27 05:31:56;;;;;;;31.88;10.70;;;-1.10;99.90;;;;;;5043513;28;20017;-64
2023/01/27 05:34:22;;;;;;;34.67;10.98;;;-1.10;99.90;;;;;;5038835;28;20107;-63
2023/01/27 05:36:47;;;;;;;29.52;10.65;;;-1.10;99.90;;;;;;5045630;28;20056;-64
2023/01/27 05:39:13;;;;;;;33.92;11.13;;;-1.10;99.90;;;;;;5044933;28;20127;-63
2023/01/27 05:41:39;;;;;;;33.55;11.10;;;-1.10;99.90;;;;;;5046599;28;20029;-64
2023/01/27 05:44:05;;;;;;;34.53;11.40;;;-1.10;99.90;;;;;;5047377;28;20043;-64
2023/01/27 05:46:32;;;;;;;38.20;11.48;;;-1.10;99.90;;;;;;5050535;28;20116;-65
2023/01/27 05:49:05;;;;;;;41.35;12.95;;;-1.10;99.90;;;;;;5031633;28;20086;-64
2023/01/27 05:51:34;;;;;;;43.20;15.10;;;-1.00;99.90;;;;;;5040099;28;20063;-63
2023/01/27 05:54:00;;;;;;;45.97;14.45;;;-1.00;99.90;;;;;;5046022;28;20087;-63
2023/01/27 05:56:26;;;;;;;38.75;13.13;;;-1.00;99.90;;;;;;5031967;28;20041;-64
2023/01/27 05:58:56;;;;;;;36.58;12.32;;;-1.00;99.90;;;;;;5044534;28;20037;-63
2023/01/27 06:01:27;;;;;;;34.60;11.43;;;-1.10;99.90;;;;;;5048078;28;20033;-64
2023/01/27 06:03:53;;;;;;;41.58;12.77;;;-1.10;99.90;;;;;;5048790;28;20033;-63
2023/01/27 06:06:21;;;;;;;38.53;11.55;;;-1.10;99.90;;;;;;5051263;28;20797;-63
2023/01/27 06:08:47;;;;;;;36.20;11.35;;;-1.10;99.90;;;;;;5050844;28;20032;-62
2023/01/27 06:11:14;;;;;;;40.85;12.25;;;-1.10;99.90;;;;;;5034765;28;20033;-64
2023/01/27 06:13:40;;;;;;;35.22;11.65;;;-1.10;99.90;;;;;;5043396;28;20394;-64
2023/01/27 06:16:12;;;;;;;35.92;11.20;;;-1.10;99.90;;;;;;5049511;28;20025;-63
2023/01/27 06:18:38;;;;;;;34.85;11.27;;;-1.10;99.90;;;;;;5032311;28;20037;-63
2023/01/27 06:21:06;;;;;;;40.08;12.18;;;-1.10;99.90;;;;;;5030965;28;20462;-62
2023/01/27 06:23:32;;;;;;;36.72;11.13;;;-1.10;99.90;;;;;;5045388;28;20102;-64
2023/01/27 06:26:15;;;;;;;35.65;11.57;;;-1.10;99.90;;;;;;5050006;28;20037;-63
2023/01/27 06:28:41;;;;;;;33.13;10.82;;;-1.10;99.90;;;;;;5045315;28;20091;-64
2023/01/27 06:31:12;;;;;;;34.72;11.55;;;-1.10;99.90;;;;;;5049819;28;20477;-63
2023/01/27 06:33:38;;;;;;;34.60;11.65;;;-1.10;99.90;;;;;;5037561;28;20531;-64
2023/01/27 06:36:09;;;;;;;33.88;11.60;;;-1.10;99.90;;;;;;5051044;28;20033;-62
2023/01/27 06:38:36;;;;;;;33.70;10.40;;;-1.00;99.90;;;;;;5051431;28;20041;-65
2023/01/27 06:41:02;;;;;;;30.77;10.73;;;-1.00;99.90;;;;;;5049296;28;20039;-63
2023/01/27 06:43:28;;;;;;;58.80;17.85;;;-1.00;99.90;;;;;;5044480;28;20041;-63
2023/01/27 06:45:56;;;;;;;42.50;14.30;;;-1.00;99.90;;;;;;5044193;28;20057;-63
2023/01/27 06:48:22;;;;;;;40.95;12.68;;;-1.10;99.90;;;;;;5049770;28;20072;-63
2023/01/27 06:50:47;;;;;;;41.58;12.57;;;-1.10;99.90;;;;;;5049119;28;20076;-63
2023/01/27 06:53:13;;;;;;;40.35;12.90;;;-1.10;99.90;;;;;;5031313;28;20395;-64
2023/01/27 06:55:40;;;;;;;38.97;12.18;;;-1.20;99.90;;;;;;5041929;28;20105;-63
2023/01/27 06:58:10;;;;;;;37.92;12.13;;;-1.20;99.90;;;;;;5048369;28;20046;-65
2023/01/27 07:00:37;;;;;;;42.90;13.07;;;-1.10;99.90;;;;;;5048722;28;20408;-65
2023/01/27 07:03:03;;;;;;;40.03;12.77;;;-1.20;99.90;;;;;;5030286;28;20192;-64
2023/01/27 07:05:29;;;;;;;46.38;14.32;;;-1.10;99.90;;;;;;5035864;28;20106;-64
2023/01/27 07:07:55;;;;;;;40.20;14.07;;;-1.10;99.90;;;;;;5048586;28;20543;-63
2023/01/27 07:10:21;;;;;;;56.65;16.73;;;-1.10;99.90;;;;;;5049465;28;20029;-64
2023/01/27 07:12:46;;;;;;;52.47;16.20;;;-1.10;99.90;;;;;;5047718;28;20083;-63
2023/01/27 07:15:12;;;;;;;37.20;11.68;;;-1.10;99.90;;;;;;5050437;28;20035;-64
2023/01/27 07:17:38;;;;;;;58.50;16.90;;;-1.10;99.90;;;;;;5048646;28;20374;-62
2023/01/27 07:20:04;;;;;;;46.78;15.55;;;-1.10;99.90;;;;;;5031696;28;20032;-63
2023/01/27 07:22:30;;;;;;;79.30;22.48;;;-1.10;99.90;;;;;;5050244;28;20393;-63
2023/01/27 07:24:56;;;;;;;58.17;17.13;;;-1.20;99.90;;;;;;5046652;28;20033;-63
2023/01/27 07:27:23;;;;;;;47.78;14.65;;;-1.10;99.90;;;;;;5042561;28;20084;-64
2023/01/27 07:29:49;;;;;;;70.05;20.02;;;-1.10;99.90;;;;;;5043431;28;20029;-64
2023/01/27 07:32:14;;;;;;;84.45;23.23;;;-1.10;99.90;;;;;;5048554;28;20355;-62
2023/01/27 07:34:40;;;;;;;78.80;21.60;;;-1.10;99.90;;;;;;5037340;28;20033;-62
2023/01/27 07:37:05;;;;;;;50.35;15.75;;;-1.10;99.90;;;;;;5032212;28;20401;-63
2023/01/27 07:39:32;;;;;;;40.80;14.00;;;-1.10;99.90;;;;;;5036118;28;20398;-64
2023/01/27 07:42:00;;;;;;;46.78;14.90;;;-1.10;99.90;;;;;;5031433;28;20071;-64
2023/01/27 07:44:26;;;;;;;51.00;17.17;;;-1.20;99.90;;;;;;5049818;28;20108;-64
2023/01/27 07:46:52;;;;;;;46.42;13.40;;;-1.20;99.90;;;;;;5046188;28;20045;-65
2023/01/27 07:49:18;;;;;;;41.50;13.18;;;-1.20;99.90;;;;;;5048499;28;20033;-63
2023/01/27 07:51:44;;;;;;;48.13;14.75;;;-1.30;99.90;;;;;;5048841;28;20025;-64
2023/01/27 07:54:10;;;;;;;118.95;30.02;;;-1.20;99.90;;;;;;5049662;28;20107;-63
2023/01/27 07:56:36;;;;;;;62.88;19.05;;;-1.20;99.90;;;;;;5049952;28;20120;-63
2023/01/27 07:59:02;;;;;;;62.90;19.50;;;-1.20;99.90;;;;;;5047378;28;20033;-63
2023/01/27 08:01:28;;;;;;;45.03;14.55;;;-1.10;99.90;;;;;;5044447;28;20044;-63
2023/01/27 08:03:53;;;;;;;41.45;14.27;;;-1.20;99.90;;;;;;5030312;28;20029;-64
2023/01/27 08:06:19;;;;;;;34.28;12.25;;;-1.10;99.90;;;;;;5048251;28;20108;-64
2023/01/27 08:08:45;;;;;;;34.45;11.48;;;-1.20;99.90;;;;;;5037654;28;20495;-64
2023/01/27 08:11:13;;;;;;;39.45;14.02;;;-1.20;99.90;;;;;;5029363;28;20080;-64
2023/01/27 08:13:39;;;;;;;35.90;12.15;;;-1.20;99.90;;;;;;5029712;28;20048;-63
2023/01/27 08:16:07;;;;;;;41.88;13.95;;;-1.20;99.90;;;;;;5042704;28;20029;-62
2023/01/27 08:18:33;;;;;;;39.85;13.07;;;-1.20;99.90;;;;;;5030065;28;20029;-63
2023/01/27 08:21:01;;;;;;;49.42;15.65;;;-1.20;99.90;;;;;;5045965;28;20033;-62
2023/01/27 08:23:27;;;;;;;43.03;14.23;;;-1.10;99.90;;;;;;5043245;28;20051;-62
2023/01/27 08:25:55;;;;;;;44.83;14.63;;;-1.10;99.90;;;;;;5046716;28;20033;-63
2023/01/27 08:28:22;;;;;;;49.80;18.88;;;-1.00;99.90;;;;;;5029688;28;20065;-62
2023/01/27 08:30:51;;;;;;;47.00;12.77;;;-1.00;99.90;;;;;;5038794;28;20041;-62
2023/01/27 08:33:22;;;;;;;38.45;12.95;;;-0.90;99.90;;;;;;5031324;28;20116;-61
2023/01/27 08:35:49;;;;;;;35.50;10.45;;;-0.90;99.90;;;;;;5041025;28;20037;-63
2023/01/27 08:38:17;;;;;;;31.95;10.00;;;-0.90;99.90;;;;;;5044875;28;20033;-63
2023/01/27 08:40:43;;;;;;;38.42;11.15;;;-0.90;99.90;;;;;;5049189;28;20037;-62
2023/01/27 08:43:09;;;;;;;47.88;14.45;;;-0.90;99.90;;;;;;5047957;28;20036;-62
2023/01/27 08:45:36;;;;;;;45.47;14.30;;;-0.80;99.90;;;;;;5047476;28;20033;-62
2023/01/27 08:48:04;;;;;;;41.03;14.27;;;-0.80;99.90;;;;;;5043094;28;20033;-62
2023/01/27 08:50:30;;;;;;;34.67;11.20;;;-0.70;99.90;;;;;;5028634;28;20603;-62
2023/01/27 08:52:57;;;;;;;43.60;13.93;;;-0.70;99.90;;;;;;5028309;28;20107;-63
2023/01/27 08:55:26;;;;;;;32.22;9.60;;;-0.70;99.90;;;;;;5040599;28;20033;-61
2023/01/27 08:57:51;;;;;;;60.97;16.67;;;-0.70;99.90;;;;;;5047081;28;20033;-62
2023/01/27 09:00:17;;;;;;;39.85;11.25;;;-0.70;99.90;;;;;;5044987;28;20481;-62
2023/01/27 09:02:44;;;;;;;39.42;12.35;;;-0.70;99.90;;;;;;5048783;28;20037;-62
2023/01/27 09:05:10;;;;;;;48.80;14.43;;;-0.70;99.90;;;;;;5045390;28;20024;-62
2023/01/27 09:07:36;;;;;;;39.15;11.95;;;-0.70;99.90;;;;;;5046465;28;20166;-64
2023/01/27 09:10:02;;;;;;;51.05;14.73;;;-0.70;99.90;;;;;;5043337;28;20068;-63
2023/01/27 09:12:28;;;;;;;32.10;10.00;;;-0.60;99.90;;;;;;5042586;28;20040;-62
2023/01/27 09:14:57;;;;;;;37.75;11.07;;;-0.60;99.90;;;;;;5046985;28;20735;-63
2023/01/27 09:17:25;;;;;;;29.50;9.75;;;-0.60;99.90;;;;;;5047028;28;20044;-62
2023/01/27 09:19:51;;;;;;;29.60;10.27;;;-0.60;99.90;;;;;;5037972;28;20025;-62
2023/01/27 09:22:16;;;;;;;30.42;9.68;;;-0.60;99.90;;;;;;5030088;28;20032;-62
2023/01/27 09:24:42;;;;;;;29.90;9.32;;;-0.60;99.90;;;;;;5041760;28;20371;-62
2023/01/27 09:27:08;;;;;;;31.30;9.40;;;-0.60;99.90;;;;;;5042937;28;20596;-63
2023/01/27 09:29:35;;;;;;;31.92;9.68;;;-0.60;99.90;;;;;;5032382;28;20049;-62
2023/01/27 09:32:02;;;;;;;29.08;10.40;;;-0.60;99.90;;;;;;5047842;28;20037;-62
2023/01/27 09:34:28;;;;;;;32.10;10.00;;;-0.60;99.90;;;;;;5042686;28;20116;-63
2023/01/27 09:36:58;;;;;;;27.77;9.35;;;-0.50;99.90;;;;;;5044565;28;20104;-61
2023/01/27 09:39:25;;;;;;;31.00;10.55;;;-0.50;99.90;;;;;;5037786;28;20041;-63
2023/01/27 09:42:12;;;;;;;31.88;10.23;;;-0.50;99.90;;;;;;5034600;28;20378;-63
2023/01/27 09:44:50;;;;;;;30.25;9.85;;;-0.40;99.90;;;;;;5030111;28;20037;-63
2023/01/27 09:47:38;;;;;;;30.08;9.52;;;-0.40;99.90;;;;;;5046865;28;20029;-64
2023/01/27 09:50:10;;;;;;;27.17;9.15;;;-0.30;99.90;;;;;;5047222;28;20089;-63
2023/01/27 09:52:38;;;;;;;31.60;10.65;;;-0.20;99.90;;;;;;5047449;28;20034;-63
2023/01/27 09:55:45;;;;;;;30.33;9.10;;;-0.10;99.90;;;;;;5046203;28;20476;-63
2023/01/27 09:58:48;;;;;;;28.27;8.23;;;0.00;99.90;;;;;;5028836;28;20045;-64
2023/01/27 10:01:43;;;;;;;28.25;8.70;;;0.00;99.90;;;;;;5043575;28;20045;-63
2023/01/27 10:04:35;;;;;;;25.45;8.80;;;-0.10;99.90;;;;;;5027128;28;20021;-63
2023/01/27 10:07:44;;;;;;;27.15;8.50;;;-0.10;99.90;;;;;;5028860;28;20693;-64
2023/01/27 10:10:18;;;;;;;25.27;8.18;;;-0.10;99.90;;;;;;5045278;28;20041;-62
2023/01/27 10:12:58;;;;;;;24.65;7.78;;;-0.10;99.90;;;;;;5034015;28;20032;-63
2023/01/27 10:15:43;;;;;;;20.43;7.80;;;-0.10;99.90;;;;;;5042662;28;20508;-63
2023/01/27 10:18:30;;;;;;;23.35;8.18;;;-0.10;99.90;;;;;;5044554;28;20033;-62
2023/01/27 10:21:12;;;;;;;24.13;7.75;;;-0.10;99.90;;;;;;5045699;28;20029;-63
2023/01/27 10:23:52;;;;;;;24.73;8.00;;;0.00;99.90;;;;;;5046663;28;20036;-64
2023/01/27 10:26:53;;;;;;;20.58;7.05;;;-0.10;99.90;;;;;;5044873;28;20029;-63
2023/01/27 10:29:34;;;;;;;21.98;7.60;;;0.00;99.90;;;;;;5035181;28;20080;-63
2023/01/27 10:32:23;;;;;;;27.85;10.02;;;-0.10;99.90;;;;;;5044634;28;20033;-63
2023/01/27 10:34:49;;;;;;;18.88;6.22;;;-0.20;99.90;;;;;;5046320;28;20032;-63
2023/01/27 10:37:44;;;;;;;26.17;9.93;;;-0.20;99.90;;;;;;5050601;28;20518;-63
2023/01/27 10:40:36;;;;;;;27.52;9.50;;;-0.10;99.90;;;;;;5046387;28;20057;-63
2023/01/27 10:43:12;;;;;;;19.17;6.57;;;-0.10;99.90;;;;;;5050017;28;20025;-63
2023/01/27 10:46:11;;;;;;;27.67;10.93;;;-0.20;99.90;;;;;;5038711;28;20044;-63
2023/01/27 10:49:03;;;;;;;24.10;7.95;;;-0.10;99.90;;;;;;5048344;28;20072;-63
2023/01/27 10:51:36;;;;;;;31.45;10.02;;;-0.10;99.90;;;;;;5048791;28;20033;-62
2023/01/27 10:54:08;;;;;;;30.13;10.35;;;-0.10;99.90;;;;;;5047013;28;20025;-62
2023/01/27 10:56:52;;;;;;;34.05;12.88;;;-0.20;99.90;;;;;;5048823;28;20033;-63
2023/01/27 10:59:54;;;;;;;56.35;25.33;;;-0.10;99.90;;;;;;5050014;28;20140;-63
2023/01/27 11:02:32;;;;;;;48.53;19.48;;;-0.20;99.90;;;;;;5031058;28;20029;-62
2023/01/27 11:05:02;;;;;;;59.88;22.27;;;-0.20;99.90;;;;;;5039472;28;20033;-63
2023/01/27 11:07:30;;;;;;;45.40;17.30;;;-0.20;99.90;;;;;;5043792;28;20037;-63
2023/01/27 11:10:12;;;;;;;28.95;10.15;;;-0.20;99.90;;;;;;5038479;28;20364;-63
2023/01/27 11:12:43;;;;;;;52.38;21.15;;;-0.10;99.90;;;;;;5040063;28;20029;-63
2023/01/27 11:15:32;;;;;;;35.80;12.55;;;0.00;99.90;;;;;;5049329;28;20553;-63
2023/01/27 11:18:17;;;;;;;51.60;18.73;;;0.00;99.90;;;;;;5041391;28;20148;-64
2023/01/27 11:20:52;;;;;;;72.25;30.65;;;-0.10;99.90;;;;;;5034941;28;20038;-63
2023/01/27 11:23:26;;;;;;;59.72;23.02;;;-0.10;99.90;;;;;;5043329;28;20056;-63
2023/01/27 11:26:04;;;;;;;37.22;13.02;;;-0.10;99.90;;;;;;5050931;28;20036;-64
2023/01/27 11:29:18;;;;;;;32.60;12.85;;;-0.10;99.90;;;;;;5063568;28;20098;-63
2023/01/27 11:32:04;;;;;;;32.72;12.10;;;-0.10;99.90;;;;;;5044111;28;20075;-63
2023/01/27 11:34:38;;;;;;;56.30;18.17;;;-0.10;99.90;;;;;;5042238;28;20036;-63
2023/01/27 11:37:19;;;;;;;38.20;12.55;;;-0.10;99.90;;;;;;5042682;28;20029;-63
2023/01/27 11:39:46;;;;;;;38.85;11.55;;;-0.10;99.90;;;;;;5029824;28;20029;-62
2023/01/27 11:42:12;;;;;;;67.68;20.05;;;-0.10;99.90;;;;;;5047148;28;20363;-63
2023/01/27 11:44:39;;;;;;;48.85;15.85;;;-0.10;99.90;;;;;;5033448;28;20505;-63
2023/01/27 11:47:07;;;;;;;37.35;10.70;;;-0.10;99.90;;;;;;5034685;28;20031;-64
2023/01/27 11:49:41;;;;;;;43.55;13.32;;;-0.10;99.90;;;;;;5050391;28;20048;-63
2023/01/27 11:52:13;;;;;;;49.40;15.45;;;-0.20;99.90;;;;;;5048715;28;20742;-63
2023/01/27 11:54:45;;;;;;;40.47;13.05;;;-0.20;99.90;;;;;;5049744;28;20021;-63
2023/01/27 11:57:23;;;;;;;60.60;18.98;;;-0.10;99.90;;;;;;5054799;28;20028;-63
2023/01/27 11:59:54;;;;;;;45.28;14.85;;;-0.20;99.90;;;;;;5069638;28;20028;-64
2023/01/27 12:02:28;;;;;;;;;;;-0.10;99.90;;;;;;5050796;28;20029;-63
2023/01/27 12:05:03;;;;;;;43.03;13.15;;;-0.10;99.90;;;;;;5045164;28;20270;-63
2023/01/27 12:07:53;;;;;;;39.90;12.35;;;-0.10;99.90;;;;;;5033489;28;20029;-63
2023/01/27 12:10:28;;;;;;;49.08;15.10;;;-0.10;99.90;;;;;;5045046;28;20016;-63
2023/01/27 12:12:55;;;;;;;45.92;14.00;;;-0.10;99.90;;;;;;5050011;28;20029;-62
2023/01/27 12:15:23;;;;;;;40.67;13.68;;;0.00;99.90;;;;;;5045144;28;20072;-63
2023/01/27 12:17:54;;;;;;;60.72;17.98;;;0.00;99.90;;;;;;5042280;28;20036;-63
2023/01/27 12:20:35;;;;;;;54.33;16.65;;;-0.10;99.90;;;;;;5046968;28;20032;-63
2023/01/27 12:23:24;;;;;;;46.85;15.40;;;-0.10;99.90;;;;;;5032497;28;20030;-64
2023/01/27 12:25:58;;;;;;;47.97;15.05;;;-0.20;99.90;;;;;;5034578;28;20047;-63
2023/01/27 12:28:30;;;;;;;74.40;20.25;;;-0.30;99.90;;;;;;5047740;28;20048;-63
2023/01/27 12:31:05;;;;;;;43.47;14.35;;;-0.30;99.90;;;;;;5048007;28;20060;-63
2023/01/27 12:33:33;;;;;;;46.78;14.55;;;-0.30;99.90;;;;;;5051725;28;20032;-63
2023/01/27 12:36:00;;;;;;;44.28;14.43;;;-0.30;99.90;;;;;;5049393;28;20048;-63
2023/01/27 12:38:35;;;;;;;46.60;15.18;;;-0.30;99.90;;;;;;5047377;28;20088;-64
2023/01/27 12:41:02;;;;;;;45.60;14.50;;;-0.20;99.90;;;;;;5047448;28;20070;-64
2023/01/27 12:43:28;;;;;;;49.00;16.13;;;-0.30;99.90;;;;;;5048405;28;20037;-63
2023/01/27 12:46:04;;;;;;;40.50;12.77;;;-0.30;99.90;;;;;;5048802;28;20024;-63
2023/01/27 12:48:32;;;;;;;43.45;13.82;;;-0.30;99.90;;;;;;5049152;28;20029;-63
2023/01/27 12:51:16;;;;;;;43.38;13.57;;;-0.20;99.90;;;;;;5050376;28;20485;-62
2023/01/27 12:53:43;;;;;;;55.45;16.45;;;-0.10;99.90;;;;;;5052175;28;20044;-63
2023/01/27 12:56:13;;;;;;;47.72;14.88;;;-0.10;99.90;;;;;;5045585;28;20029;-63
2023/01/27 12:58:45;;;;;;;49.92;17.02;;;-0.10;99.90;;;;;;5067764;28;20477;-63
2023/01/27 13:01:20;;;;;;;47.20;14.63;;;-0.10;99.90;;;;;;5063361;28;20029;-62
2023/01/27 13:03:59;;;;;;;53.65;15.68;;;-0.10;99.90;;;;;;5047669;28;20025;-63
2023/01/27 13:06:42;;;;;;;52.78;16.67;;;-0.10;99.90;;;;;;5048498;28;20036;-63
2023/01/27 13:09:33;;;;;;;59.95;19.02;;;-0.10;99.90;;;;;;5048123;28;20051;-63
2023/01/27 13:12:22;;;;;;;62.47;18.08;;;-0.20;99.90;;;;;;5044117;28;20122;-63
2023/01/27 13:14:54;;;;;;;50.88;16.48;;;-0.20;99.90;;;;;;5046048;28;20044;-63
2023/01/27 13:17:29;;;;;;;51.42;15.27;;;-0.20;99.90;;;;;;5044696;28;20132;-64
2023/01/27 13:19:59;;;;;;;44.55;14.95;;;-0.10;99.90;;;;;;5044756;28;20128;-63